createdAt,value
2022-10-07T00:00:59.218Z,6.50
2022-10-07T00:03:27.260Z,5.40
2022-10-07T00:06:06.285Z,5.70
2022-10-07T00:08:35.958Z,5.80
2022-10-07T00:11:26.832Z,5.10
2022-10-07T00:13:56.425Z,4.40
2022-10-07T00:16:26.793Z,4.20
2022-10-07T00:18:58.512Z,3.93
2022-10-07T00:21:27.207Z,4.27
2022-10-07T00:23:54.573Z,4.90
2022-10-07T00:26:24.869Z,4.60
2022-10-07T00:28:52.609Z,4.20
2022-10-07T00:34:22.774Z,4.23
2022-10-07T00:36:52.839Z,4.03
2022-10-07T00:39:20.024Z,4.07
2022-10-07T00:41:50.539Z,3.97
2022-10-07T00:44:53.227Z,3.80
2022-10-07T00:47:34.213Z,4.30
2022-10-07T00:50:14.364Z,4.37
2022-10-07T00:52:49.595Z,4.13
2022-10-07T00:55:22.015Z,3.97
2022-10-07T00:57:51.128Z,4.67
2022-10-07T01:00:18.196Z,4.87
2022-10-07T01:02:46.346Z,4.43
2022-10-07T01:05:14.370Z,3.80
2022-10-07T01:07:45.595Z,4.30
2022-10-07T01:10:15.643Z,4.43
2022-10-07T01:13:23.629Z,4.10
2022-10-07T01:16:20.373Z,3.63
2022-10-07T01:19:05.121Z,4.23
2022-10-07T01:22:03.508Z,4.30
2022-10-07T01:25:13.118Z,3.87
2022-10-07T01:27:47.047Z,5.40
2022-10-07T01:30:15.939Z,5.73
2022-10-07T01:32:55.627Z,6.37
2022-10-07T01:35:32.840Z,5.83
2022-10-07T01:38:05.646Z,5.20
2022-10-07T01:40:43.242Z,5.53
2022-10-07T01:43:14.436Z,6.03
2022-10-07T01:45:41.893Z,5.77
2022-10-07T01:48:09.978Z,5.27
2022-10-07T01:50:38.328Z,5.47
2022-10-07T01:53:35.834Z,4.87
2022-10-07T01:57:01.160Z,4.90
2022-10-07T02:00:26.166Z,4.97
2022-10-07T02:03:24.647Z,4.03
2022-10-07T02:06:27.726Z,4.43
2022-10-07T02:08:56.924Z,4.17
2022-10-07T02:11:30.240Z,3.73
2022-10-07T02:14:29.855Z,4.60
2022-10-07T02:17:07.964Z,4.13
2022-10-07T02:19:37.428Z,4.07
2022-10-07T02:22:05.896Z,3.90
2022-10-07T02:24:36.035Z,4.03
2022-10-07T02:27:11.172Z,3.30
2022-10-07T02:29:42.987Z,4.00
2022-10-07T02:32:18.202Z,4.20
2022-10-07T02:34:48.995Z,3.27
2022-10-07T02:37:24.871Z,3.63
2022-10-07T02:39:53.543Z,3.27
2022-10-07T02:42:33.806Z,3.27
2022-10-07T02:45:46.161Z,3.03
2022-10-07T02:48:26.447Z,2.87
2022-10-07T02:51:00.285Z,3.30
2022-10-07T02:53:29.512Z,3.60
2022-10-07T02:55:57.988Z,3.00
2022-10-07T02:58:26.678Z,3.17
2022-10-07T03:00:59.283Z,3.43
2022-10-07T03:03:27.574Z,2.93
2022-10-07T03:06:05.700Z,3.37
2022-10-07T03:08:34.306Z,3.30
2022-10-07T03:11:02.041Z,2.83
2022-10-07T03:13:31.307Z,3.87
2022-10-07T03:16:04.438Z,3.17
2022-10-07T03:18:32.476Z,2.87
2022-10-07T03:21:19.308Z,3.43
2022-10-07T03:23:52.549Z,3.50
2022-10-07T03:26:21.922Z,3.90
2022-10-07T03:28:49.678Z,4.07
2022-10-07T03:31:17.482Z,4.40
2022-10-07T03:33:48.701Z,4.10
2022-10-07T03:36:15.799Z,5.10
2022-10-07T03:38:45.566Z,5.00
2022-10-07T03:41:13.185Z,5.00
2022-10-07T03:43:40.370Z,5.47
2022-10-07T03:46:09.459Z,5.87
2022-10-07T03:48:38.059Z,4.27
2022-10-07T03:51:05.386Z,4.10
2022-10-07T03:53:38.459Z,3.30
2022-10-07T03:56:05.852Z,3.60
2022-10-07T03:58:33.944Z,3.53
2022-10-07T04:01:11.239Z,3.60
2022-10-07T04:03:43.869Z,3.87
2022-10-07T04:06:10.981Z,3.20
2022-10-07T04:08:41.025Z,4.10
2022-10-07T04:11:08.773Z,3.90
2022-10-07T04:13:40.657Z,3.90
2022-10-07T04:16:10.285Z,4.07
2022-10-07T04:18:38.107Z,3.60
2022-10-07T04:21:05.950Z,3.33
2022-10-07T04:23:35.570Z,3.87
2022-10-07T04:26:10.969Z,4.10
2022-10-07T04:28:42.047Z,3.70
2022-10-07T04:31:12.807Z,3.40
2022-10-07T04:33:44.169Z,3.83
2022-10-07T04:36:13.858Z,3.50
2022-10-07T04:38:50.535Z,3.90
2022-10-07T04:41:19.988Z,5.10
2022-10-07T04:43:56.643Z,5.27
2022-10-07T04:46:25.498Z,5.27
2022-10-07T04:48:59.956Z,4.40
2022-10-07T04:51:28.288Z,4.57
2022-10-07T04:53:58.550Z,4.13
2022-10-07T04:56:31.546Z,5.13
2022-10-07T04:59:00.435Z,4.73
2022-10-07T05:01:28.479Z,3.73
2022-10-07T05:03:55.716Z,4.10
2022-10-07T05:06:22.860Z,3.83
2022-10-07T05:08:50.059Z,3.60
2022-10-07T05:11:17.305Z,3.93
2022-10-07T05:13:52.661Z,4.27
2022-10-07T05:16:21.266Z,4.13
2022-10-07T05:18:48.452Z,4.27
2022-10-07T05:21:16.723Z,4.13
2022-10-07T05:23:46.361Z,4.50
2022-10-07T05:26:17.668Z,3.97
2022-10-07T05:28:50.090Z,4.07
2022-10-07T05:31:23.072Z,3.53
2022-10-07T05:33:54.273Z,4.07
2022-10-07T05:36:24.119Z,3.87
2022-10-07T05:38:58.277Z,3.60
2022-10-07T05:41:36.101Z,3.87
2022-10-07T05:44:11.985Z,4.00
2022-10-07T05:46:40.364Z,3.70
2022-10-07T05:49:08.001Z,4.87
2022-10-07T05:51:36.278Z,7.47
2022-10-07T05:54:03.573Z,8.20
2022-10-07T05:56:37.208Z,6.50
2022-10-07T05:59:04.867Z,6.80
2022-10-07T06:01:32.246Z,6.90
2022-10-07T06:04:03.865Z,6.10
2022-10-07T06:06:35.555Z,6.33
2022-10-07T06:09:25.499Z,6.50
2022-10-07T06:12:11.730Z,5.57
2022-10-07T06:14:39.512Z,5.60
2022-10-07T06:17:08.197Z,4.73
2022-10-07T06:19:37.756Z,5.23
2022-10-07T06:22:05.010Z,4.87
2022-10-07T06:24:34.237Z,4.63
2022-10-07T06:27:02.455Z,5.27
2022-10-07T06:29:30.273Z,4.80
2022-10-07T06:31:57.502Z,5.47
2022-10-07T06:34:24.481Z,5.50
2022-10-07T06:36:51.517Z,6.60
2022-10-07T06:39:18.565Z,5.53
2022-10-07T06:41:47.494Z,5.27
2022-10-07T06:44:31.332Z,5.10
2022-10-07T06:46:58.973Z,5.60
2022-10-07T06:49:26.593Z,5.97
2022-10-07T06:51:54.611Z,5.67
2022-10-07T06:54:21.789Z,6.40
2022-10-07T06:56:48.845Z,6.80
2022-10-07T06:59:15.910Z,5.93
2022-10-07T07:01:53.368Z,6.40
2022-10-07T07:04:20.599Z,6.40
2022-10-07T07:06:47.713Z,6.73
2022-10-07T07:09:15.336Z,6.30
2022-10-07T07:11:45.431Z,6.13
2022-10-07T07:14:25.971Z,6.47
2022-10-07T07:17:04.420Z,6.87
2022-10-07T07:19:31.978Z,6.37
2022-10-07T07:21:59.268Z,7.57
2022-10-07T07:24:27.578Z,6.47
2022-10-07T07:26:54.728Z,7.17
2022-10-07T07:29:24.395Z,7.23
2022-10-07T07:32:00.120Z,6.87
2022-10-07T07:34:30.366Z,6.83
2022-10-07T07:36:57.849Z,6.60
2022-10-07T07:39:30.372Z,6.30
2022-10-07T07:42:05.470Z,6.00
2022-10-07T07:44:34.880Z,6.57
2022-10-07T07:47:04.034Z,6.70
2022-10-07T07:49:32.913Z,7.53
2022-10-07T07:52:00.940Z,7.30
2022-10-07T07:54:34.164Z,7.03
2022-10-07T07:57:01.447Z,7.30
2022-10-07T07:59:32.805Z,7.67
2022-10-07T08:02:01.043Z,7.73
2022-10-07T08:04:29.584Z,9.63
2022-10-07T08:06:57.018Z,8.63
2022-10-07T08:09:25.350Z,7.63
2022-10-07T08:11:53.308Z,7.67
2022-10-07T08:14:20.458Z,8.07
2022-10-07T08:16:50.623Z,7.93
2022-10-07T08:19:18.163Z,7.87
2022-10-07T08:21:45.553Z,7.60
2022-10-07T08:24:17.319Z,8.10
2022-10-07T08:26:44.919Z,7.63
2022-10-07T08:29:14.250Z,7.43
2022-10-07T08:31:42.730Z,7.93
2022-10-07T08:34:11.016Z,8.47
2022-10-07T08:36:38.530Z,8.50
2022-10-07T08:39:06.982Z,8.57
2022-10-07T08:42:13.671Z,8.47
2022-10-07T08:44:44.491Z,10.07
2022-10-07T08:47:38.752Z,8.47
2022-10-07T08:50:19.149Z,9.40
2022-10-07T08:53:01.973Z,9.87
2022-10-07T08:55:54.971Z,9.10
2022-10-07T08:58:37.731Z,10.47
2022-10-07T09:01:36.457Z,8.93
2022-10-07T09:04:54.794Z,9.33
2022-10-07T09:07:53.973Z,10.07
2022-10-07T09:10:49.612Z,9.93
2022-10-07T09:13:21.011Z,10.87
2022-10-07T09:16:19.899Z,10.13
2022-10-07T09:18:54.042Z,10.63
2022-10-07T09:21:43.815Z,11.73
2022-10-07T09:24:21.011Z,11.70
2022-10-07T09:26:48.742Z,10.83
2022-10-07T09:29:20.082Z,11.50
2022-10-07T09:31:49.472Z,12.83
2022-10-07T09:34:29.091Z,12.90
2022-10-07T09:37:22.595Z,12.30
2022-10-07T09:39:51.956Z,11.20
2022-10-07T09:42:36.499Z,11.57
2022-10-07T09:45:18.918Z,10.20
2022-10-07T09:47:52.692Z,9.63
2022-10-07T09:50:48.195Z,10.60
2022-10-07T09:53:24.463Z,11.80
2022-10-07T09:55:53.646Z,10.37
2022-10-07T09:58:29.273Z,10.73
2022-10-07T10:00:58.662Z,11.90
2022-10-07T10:03:33.945Z,12.40
2022-10-07T10:06:09.533Z,12.10
2022-10-07T10:08:55.598Z,11.97
2022-10-07T10:11:30.338Z,12.93
2022-10-07T10:13:57.474Z,12.00
2022-10-07T10:16:37.669Z,10.97
2022-10-07T10:19:25.981Z,12.07
2022-10-07T10:21:57.694Z,12.57
2022-10-07T10:24:45.951Z,11.33
2022-10-07T10:27:31.017Z,11.27
2022-10-07T10:30:05.434Z,11.77
2022-10-07T10:33:10.347Z,10.93
2022-10-07T10:36:19.439Z,10.60
2022-10-07T10:39:37.871Z,10.60
2022-10-07T10:42:09.311Z,11.03
2022-10-07T10:45:08.001Z,11.33
2022-10-07T10:48:24.473Z,10.50
2022-10-07T10:51:00.964Z,10.60
2022-10-07T10:53:49.451Z,9.93
2022-10-07T10:56:27.148Z,10.73
2022-10-07T10:59:58.420Z,9.73
2022-10-07T11:03:04.419Z,9.40
2022-10-07T11:05:37.396Z,8.87
2022-10-07T11:08:27.975Z,8.83
2022-10-07T11:11:02.154Z,9.07
2022-10-07T11:13:47.110Z,10.63
2022-10-07T11:16:31.816Z,9.13
2022-10-07T11:19:22.219Z,9.00
2022-10-07T11:21:52.304Z,8.13
2022-10-07T11:24:54.960Z,9.10
2022-10-07T11:27:34.748Z,10.00
2022-10-07T11:30:17.763Z,8.90
2022-10-07T11:33:01.374Z,8.00
2022-10-07T11:35:34.573Z,8.30
2022-10-07T11:38:25.205Z,8.37
2022-10-07T11:40:57.356Z,9.50
2022-10-07T11:43:33.489Z,8.13
2022-10-07T11:46:20.300Z,8.33
2022-10-07T11:48:51.602Z,7.80
2022-10-07T11:51:28.301Z,9.37
2022-10-07T11:54:01.179Z,12.57
2022-10-07T11:56:44.585Z,8.23
2022-10-07T11:59:31.924Z,7.60
2022-10-07T12:01:59.124Z,7.63
2022-10-07T12:04:38.341Z,7.73
2022-10-07T12:07:34.825Z,6.97
2022-10-07T12:10:29.422Z,7.23
2022-10-07T12:13:32.767Z,8.30
2022-10-07T12:16:50.051Z,7.43
2022-10-07T12:19:23.325Z,6.80
2022-10-07T12:22:17.984Z,6.47
2022-10-07T12:24:46.922Z,6.93
2022-10-07T12:27:21.886Z,7.27
2022-10-07T12:30:02.370Z,6.70
2022-10-07T12:33:14.041Z,6.67
2022-10-07T12:35:50.009Z,6.70
2022-10-07T12:38:26.983Z,6.47
2022-10-07T12:41:30.344Z,5.82
2022-10-07T12:44:49.066Z,7.47
2022-10-07T12:47:29.825Z,6.60
2022-10-07T12:50:02.641Z,7.25
2022-10-07T12:52:55.891Z,6.70
2022-10-07T12:55:37.472Z,6.63
2022-10-07T12:58:57.943Z,6.55
2022-10-07T13:02:00.225Z,6.65
2022-10-07T13:04:58.064Z,6.60
2022-10-07T13:08:20.306Z,6.17
2022-10-07T13:11:36.938Z,5.88
2022-10-07T13:15:04.001Z,5.35
2022-10-07T13:17:47.489Z,6.47
2022-10-07T13:20:46.886Z,5.38
2022-10-07T13:23:24.560Z,5.00
2022-10-07T13:25:53.446Z,5.40
2022-10-07T13:28:22.897Z,4.88
2022-10-07T13:30:51.372Z,5.93
2022-10-07T13:33:30.535Z,5.15
2022-10-07T13:36:14.097Z,5.75
2022-10-07T13:38:41.245Z,5.25
2022-10-07T13:41:37.700Z,5.15
2022-10-07T13:44:06.236Z,6.28
2022-10-07T13:46:35.517Z,5.63
2022-10-07T13:49:03.520Z,4.78
2022-10-07T13:51:55.486Z,4.60
2022-10-07T13:54:26.402Z,4.95
2022-10-07T13:56:54.189Z,4.82
2022-10-07T13:59:22.092Z,5.38
2022-10-07T14:01:55.953Z,4.68
2022-10-07T14:04:28.630Z,4.88
2022-10-07T14:07:16.887Z,5.10
2022-10-07T14:10:10.057Z,4.75
2022-10-07T14:12:44.789Z,4.80
2022-10-07T14:15:24.697Z,4.82
2022-10-07T14:17:59.531Z,4.95
2022-10-07T14:20:38.832Z,4.95
2022-10-07T14:23:17.484Z,4.38
2022-10-07T14:25:56.076Z,4.90
2022-10-07T14:28:34.812Z,4.75
2022-10-07T14:31:46.791Z,4.53
2022-10-07T14:34:39.027Z,4.93
2022-10-07T14:37:29.681Z,4.40
2022-10-07T14:39:58.954Z,3.45
2022-10-07T14:42:29.308Z,4.00
2022-10-07T14:44:57.569Z,4.40
2022-10-07T14:47:28.324Z,3.50
2022-10-07T14:49:57.960Z,4.05
2022-10-07T14:52:31.647Z,5.05
2022-10-07T14:55:05.317Z,3.90
2022-10-07T14:57:32.396Z,4.05
2022-10-07T14:59:59.705Z,4.30
2022-10-07T15:02:27.558Z,4.07
2022-10-07T15:04:54.767Z,3.45
2022-10-07T15:07:21.922Z,3.90
2022-10-07T15:09:48.928Z,3.90
2022-10-07T15:12:16.676Z,4.05
2022-10-07T15:14:43.798Z,4.07
2022-10-07T15:17:14.418Z,4.00
2022-10-07T15:19:41.633Z,3.90
2022-10-07T15:22:08.600Z,4.00
2022-10-07T15:24:36.143Z,3.43
2022-10-07T15:27:03.312Z,4.53
2022-10-07T15:29:30.308Z,5.07
2022-10-07T15:31:57.411Z,4.00
2022-10-07T15:34:25.970Z,4.63
2022-10-07T15:36:52.995Z,4.63
2022-10-07T15:39:19.990Z,4.90
2022-10-07T15:41:47.458Z,4.93
2022-10-07T15:44:21.556Z,4.70
2022-10-07T15:46:52.663Z,4.80
2022-10-07T15:49:19.710Z,4.77
2022-10-07T15:51:47.099Z,4.97
2022-10-07T15:54:14.374Z,5.00
2022-10-07T15:56:42.882Z,4.93
2022-10-07T15:59:10.356Z,4.90
2022-10-07T16:01:37.578Z,5.07
2022-10-07T16:04:05.988Z,5.20
2022-10-07T16:06:34.921Z,4.70
2022-10-07T16:09:03.549Z,5.30
2022-10-07T16:11:33.114Z,5.17
2022-10-07T16:14:03.774Z,4.90
2022-10-07T16:16:32.433Z,5.27
2022-10-07T16:19:00.684Z,5.20
2022-10-07T16:21:37.896Z,5.30
2022-10-07T16:24:13.629Z,4.83
2022-10-07T16:26:41.126Z,5.30
2022-10-07T16:29:32.502Z,5.37
2022-10-07T16:31:59.966Z,4.40
2022-10-07T16:34:28.428Z,5.23
2022-10-07T16:36:56.953Z,4.90
2022-10-07T16:39:24.498Z,5.40
2022-10-07T16:41:52.493Z,4.57
2022-10-07T16:44:20.533Z,5.20
2022-10-07T16:46:48.634Z,4.73
2022-10-07T16:49:17.743Z,4.83
2022-10-07T16:51:46.063Z,5.23
2022-10-07T16:54:16.046Z,5.10
2022-10-07T16:56:49.261Z,5.10
2022-10-07T16:59:23.217Z,5.37
2022-10-07T17:01:56.163Z,5.40
2022-10-07T17:04:24.806Z,5.20
2022-10-07T17:06:52.270Z,6.00
2022-10-07T17:09:19.610Z,5.53
2022-10-07T17:11:47.041Z,6.73
2022-10-07T17:14:16.730Z,5.53
2022-10-07T17:16:50.021Z,6.03
2022-10-07T17:19:23.339Z,6.60
2022-10-07T17:21:51.633Z,5.97
2022-10-07T17:24:20.291Z,5.73
2022-10-07T17:26:48.641Z,7.00
2022-10-07T17:29:18.926Z,6.70
2022-10-07T17:31:50.533Z,6.70
2022-10-07T17:34:22.330Z,7.23
2022-10-07T17:36:50.267Z,7.17
2022-10-07T17:39:19.351Z,8.00
2022-10-07T17:41:46.770Z,8.10
2022-10-07T17:44:13.971Z,7.40
2022-10-07T17:46:41.767Z,7.73
2022-10-07T17:49:13.411Z,7.30
2022-10-07T17:51:42.978Z,7.03
2022-10-07T17:54:11.861Z,8.37
2022-10-07T17:56:39.073Z,8.40
2022-10-07T17:59:06.086Z,8.13
2022-10-07T18:01:35.028Z,8.00
2022-10-07T18:04:05.454Z,7.30
2022-10-07T18:06:35.395Z,8.60
2022-10-07T18:09:05.392Z,8.00
2022-10-07T18:11:51.299Z,7.53
2022-10-07T18:14:37.786Z,8.73
2022-10-07T18:17:06.415Z,7.63
2022-10-07T18:19:33.592Z,6.90
2022-10-07T18:22:00.710Z,8.13
2022-10-07T18:24:28.962Z,7.63
2022-10-07T18:26:58.782Z,8.27
2022-10-07T18:29:27.219Z,8.80
2022-10-07T18:31:54.551Z,9.40
2022-10-07T18:34:22.045Z,9.13
2022-10-07T18:36:52.611Z,9.90
2022-10-07T18:39:22.518Z,9.00
2022-10-07T18:41:49.497Z,9.97
2022-10-07T18:44:16.533Z,8.77
2022-10-07T18:46:43.753Z,10.00
2022-10-07T18:49:13.761Z,9.57
2022-10-07T18:51:41.296Z,9.50
2022-10-07T18:54:08.436Z,9.73
2022-10-07T18:56:40.593Z,9.83
2022-10-07T18:59:08.576Z,11.30
2022-10-07T19:01:36.709Z,10.70
2022-10-07T19:04:03.836Z,10.60
2022-10-07T19:06:32.624Z,11.80
2022-10-07T19:09:01.980Z,11.40
2022-10-07T19:11:31.712Z,12.17
2022-10-07T19:13:59.648Z,11.67
2022-10-07T19:16:41.109Z,12.27
2022-10-07T19:19:12.162Z,13.33
2022-10-07T19:21:39.850Z,14.10
2022-10-07T19:24:07.770Z,13.57
2022-10-07T19:26:37.169Z,11.93
2022-10-07T19:29:05.501Z,13.63
2022-10-07T19:31:35.766Z,13.27
2022-10-07T19:34:11.586Z,12.83
2022-10-07T19:36:40.663Z,12.20
2022-10-07T19:39:09.111Z,12.93
2022-10-07T19:41:36.768Z,12.13
2022-10-07T19:44:05.092Z,12.47
2022-10-07T19:46:33.645Z,12.73
2022-10-07T19:49:02.400Z,12.30
2022-10-07T19:51:31.246Z,13.67
2022-10-07T19:53:59.848Z,14.20
2022-10-07T19:56:29.642Z,13.97
2022-10-07T19:58:58.922Z,13.43
2022-10-07T20:01:28.428Z,15.30
2022-10-07T20:04:03.892Z,13.20
2022-10-07T20:06:31.493Z,13.87
2022-10-07T20:08:59.139Z,15.80
2022-10-07T20:11:27.888Z,14.23
2022-10-07T20:13:55.009Z,15.73
2022-10-07T20:16:24.757Z,14.13
2022-10-07T20:18:58.647Z,15.07
2022-10-07T20:21:25.688Z,14.53
2022-10-07T20:23:53.964Z,13.37
2022-10-07T20:26:33.258Z,16.57
2022-10-07T20:29:02.115Z,15.23
2022-10-07T20:31:32.643Z,15.03
2022-10-07T20:34:01.729Z,15.13
2022-10-07T20:36:32.091Z,16.60
2022-10-07T20:39:23.627Z,15.27
2022-10-07T20:42:10.365Z,14.77
2022-10-07T20:44:38.146Z,18.40
2022-10-07T20:47:07.798Z,15.73
2022-10-07T20:49:37.357Z,16.80
2022-10-07T20:52:09.028Z,18.50
2022-10-07T20:54:36.123Z,19.27
2022-10-07T20:57:04.129Z,18.60
2022-10-07T20:59:31.936Z,18.10
2022-10-07T21:01:59.884Z,18.50
2022-10-07T21:04:28.334Z,19.50
2022-10-07T21:06:59.108Z,19.63
2022-10-07T21:09:26.605Z,21.73
2022-10-07T21:11:55.090Z,19.87
2022-10-07T21:14:22.803Z,19.87
2022-10-07T21:16:49.928Z,18.30
2022-10-07T21:19:17.265Z,18.47
2022-10-07T21:21:44.353Z,19.60
2022-10-07T21:24:11.355Z,19.23
2022-10-07T21:26:38.497Z,18.30
2022-10-07T21:29:08.255Z,17.43
2022-10-07T21:31:35.873Z,18.13
2022-10-07T21:34:07.842Z,21.90
2022-10-07T21:36:38.299Z,21.30
2022-10-07T21:39:05.899Z,19.20
2022-10-07T21:41:35.022Z,19.37
2022-10-07T21:44:07.256Z,17.27
2022-10-07T21:46:36.744Z,17.83
2022-10-07T21:49:06.256Z,17.80
2022-10-07T21:51:34.765Z,16.07
2022-10-07T21:54:02.532Z,17.03
2022-10-07T21:56:31.784Z,17.57
2022-10-07T21:59:01.583Z,18.60
2022-10-07T22:01:29.426Z,17.10
2022-10-07T22:04:01.806Z,19.20
2022-10-07T22:06:49.345Z,20.33
2022-10-07T22:09:18.534Z,16.67
2022-10-07T22:11:45.575Z,18.53
2022-10-07T22:14:13.284Z,20.00
2022-10-07T22:16:40.729Z,18.57
2022-10-07T22:19:08.094Z,17.20
2022-10-07T22:21:39.925Z,18.03
2022-10-07T22:24:08.765Z,21.73
2022-10-07T22:26:46.030Z,19.67
2022-10-07T22:29:14.997Z,20.97
2022-10-07T22:31:42.016Z,21.00
2022-10-07T22:34:09.290Z,22.67
2022-10-07T22:36:36.998Z,22.77
2022-10-07T22:39:04.506Z,19.80
2022-10-07T22:41:32.232Z,21.73
2022-10-07T22:44:00.166Z,23.17
2022-10-07T22:46:28.364Z,22.30
2022-10-07T22:48:58.102Z,24.27
2022-10-07T22:51:28.705Z,23.43
2022-10-07T22:53:56.966Z,23.37
2022-10-07T22:56:26.089Z,21.63
2022-10-07T22:58:58.192Z,21.20
2022-10-07T23:01:26.052Z,20.27
2022-10-07T23:03:53.392Z,21.90
2022-10-07T23:06:20.969Z,22.97
2022-10-07T23:08:48.825Z,23.17
2022-10-07T23:11:19.085Z,23.50
2022-10-07T23:13:46.299Z,24.07
2022-10-07T23:16:16.591Z,23.77
2022-10-07T23:18:45.030Z,21.73
2022-10-07T23:21:15.140Z,21.47
2022-10-07T23:23:44.110Z,22.17
2022-10-07T23:26:19.424Z,21.13
2022-10-07T23:28:49.382Z,20.77
2022-10-07T23:31:18.633Z,23.37
2022-10-07T23:33:51.626Z,23.67
2022-10-07T23:36:22.757Z,26.33
2022-10-07T23:38:50.981Z,24.73
2022-10-07T23:41:20.708Z,24.30
2022-10-07T23:43:56.413Z,23.77
2022-10-07T23:46:25.235Z,27.17
2022-10-07T23:48:52.613Z,24.63
2022-10-07T23:51:22.245Z,23.30
2022-10-07T23:53:49.369Z,21.30
2022-10-07T23:56:18.801Z,23.00
2022-10-07T23:58:45.846Z,23.37
